sensor_id;sensor_type;location;lat;lon;timestamp;P1;durP1;ratioP1;P2;durP2;ratioP2
1000;SDS011;489;47.806;12.858;2023-12-29T00:00:25;5.60;;;4.53;;
1000;SDS011;489;47.806;12.858;2023-12-29T00:02:27;5.27;;;4.77;;
1000;SDS011;489;47.806;12.858;2023-12-29T00:04:30;6.13;;;4.37;;
1000;SDS011;489;47.806;12.858;2023-12-29T00:06:30;5.57;;;4.60;;
1000;SDS011;489;47.806;12.858;2023-12-29T00:08:32;7.83;;;4.33;;
1000;SDS011;489;47.806;12.858;2023-12-29T00:10:35;7.87;;;5.50;;
1000;SDS011;489;47.806;12.858;2023-12-29T00:12:38;7.90;;;5.77;;
1000;SDS011;489;47.806;12.858;2023-12-29T00:14:39;7.17;;;6.17;;
1000;SDS011;489;47.806;12.858;2023-12-29T00:16:42;5.50;;;4.90;;
1000;SDS011;489;47.806;12.858;2023-12-29T00:18:44;8.03;;;4.67;;
1000;SDS011;489;47.806;12.858;2023-12-29T00:20:47;6.23;;;5.07;;
1000;SDS011;489;47.806;12.858;2023-12-29T00:22:49;5.10;;;4.60;;
1000;SDS011;489;47.806;12.858;2023-12-29T00:24:51;5.50;;;4.27;;
1000;SDS011;489;47.806;12.858;2023-12-29T00:26:52;4.93;;;4.30;;
1000;SDS011;489;47.806;12.858;2023-12-29T00:28:53;4.90;;;4.50;;
1000;SDS011;489;47.806;12.858;2023-12-29T00:30:55;5.27;;;4.77;;
1000;SDS011;489;47.806;12.858;2023-12-29T00:32:58;5.40;;;4.17;;
1000;SDS011;489;47.806;12.858;2023-12-29T00:34:59;5.07;;;4.57;;
1000;SDS011;489;47.806;12.858;2023-12-29T00:37:01;4.57;;;4.17;;
1000;SDS011;489;47.806;12.858;2023-12-29T00:39:04;4.20;;;3.80;;
1000;SDS011;489;47.806;12.858;2023-12-29T00:41:06;5.43;;;4.20;;
1000;SDS011;489;47.806;12.858;2023-12-29T00:43:08;4.30;;;3.90;;
1000;SDS011;489;47.806;12.858;2023-12-29T00:45:10;6.70;;;5.20;;
1000;SDS011;489;47.806;12.858;2023-12-29T00:47:12;5.77;;;4.77;;
1000;SDS011;489;47.806;12.858;2023-12-29T00:49:17;5.20;;;4.70;;
1000;SDS011;489;47.806;12.858;2023-12-29T00:51:19;6.70;;;4.80;;
1000;SDS011;489;47.806;12.858;2023-12-29T00:53:21;7.10;;;4.33;;
1000;SDS011;489;47.806;12.858;2023-12-29T00:55:23;5.30;;;4.50;;
1000;SDS011;489;47.806;12.858;2023-12-29T00:57:25;5.53;;;4.63;;
1000;SDS011;489;47.806;12.858;2023-12-29T00:59:27;6.03;;;5.03;;
1000;SDS011;489;47.806;12.858;2023-12-29T01:01:32;5.73;;;4.80;;
1000;SDS011;489;47.806;12.858;2023-12-29T01:03:35;7.27;;;4.77;;
1000;SDS011;489;47.806;12.858;2023-12-29T01:05:38;5.30;;;4.80;;
1000;SDS011;489;47.806;12.858;2023-12-29T01:07:40;3.90;;;3.60;;
1000;SDS011;489;47.806;12.858;2023-12-29T01:09:42;5.60;;;4.13;;
1000;SDS011;489;47.806;12.858;2023-12-29T01:11:44;5.57;;;4.33;;
1000;SDS011;489;47.806;12.858;2023-12-29T01:13:45;4.57;;;3.80;;
1000;SDS011;489;47.806;12.858;2023-12-29T01:15:47;5.00;;;4.27;;
1000;SDS011;489;47.806;12.858;2023-12-29T01:17:49;4.83;;;3.77;;
1000;SDS011;489;47.806;12.858;2023-12-29T01:19:50;4.70;;;3.70;;
1000;SDS011;489;47.806;12.858;2023-12-29T01:21:53;5.07;;;3.90;;
1000;SDS011;489;47.806;12.858;2023-12-29T01:23:56;5.00;;;4.40;;
1000;SDS011;489;47.806;12.858;2023-12-29T01:25:58;4.30;;;3.77;;
1000;SDS011;489;47.806;12.858;2023-12-29T01:28:00;5.77;;;4.30;;
1000;SDS011;489;47.806;12.858;2023-12-29T01:30:01;4.33;;;3.40;;
1000;SDS011;489;47.806;12.858;2023-12-29T01:32:05;3.80;;;3.33;;
1000;SDS011;489;47.806;12.858;2023-12-29T01:34:08;4.30;;;3.80;;
1000;SDS011;489;47.806;12.858;2023-12-29T01:36:16;4.40;;;3.87;;
1000;SDS011;489;47.806;12.858;2023-12-29T01:38:20;3.30;;;2.90;;
1000;SDS011;489;47.806;12.858;2023-12-29T01:40:22;4.23;;;3.40;;
1000;SDS011;489;47.806;12.858;2023-12-29T01:42:25;4.50;;;3.10;;
1000;SDS011;489;47.806;12.858;2023-12-29T01:44:27;3.20;;;2.90;;
1000;SDS011;489;47.806;12.858;2023-12-29T01:46:29;4.30;;;2.73;;
1000;SDS011;489;47.806;12.858;2023-12-29T01:48:32;2.57;;;2.27;;
1000;SDS011;489;47.806;12.858;2023-12-29T01:50:34;3.83;;;2.87;;
1000;SDS011;489;47.806;12.858;2023-12-29T01:52:36;3.20;;;2.70;;
1000;SDS011;489;47.806;12.858;2023-12-29T01:54:41;3.43;;;3.10;;
1000;SDS011;489;47.806;12.858;2023-12-29T01:56:43;3.80;;;3.37;;
1000;SDS011;489;47.806;12.858;2023-12-29T01:58:44;3.30;;;2.67;;
1000;SDS011;489;47.806;12.858;2023-12-29T02:00:46;4.23;;;3.27;;
1000;SDS011;489;47.806;12.858;2023-12-29T02:02:48;3.60;;;2.60;;
1000;SDS011;489;47.806;12.858;2023-12-29T02:04:50;5.50;;;3.07;;
1000;SDS011;489;47.806;12.858;2023-12-29T02:06:52;4.10;;;3.00;;
1000;SDS011;489;47.806;12.858;2023-12-29T02:08:54;3.27;;;2.93;;
1000;SDS011;489;47.806;12.858;2023-12-29T02:10:57;3.07;;;2.80;;
1000;SDS011;489;47.806;12.858;2023-12-29T02:12:59;3.00;;;2.70;;
1000;SDS011;489;47.806;12.858;2023-12-29T02:15:01;3.57;;;2.60;;
1000;SDS011;489;47.806;12.858;2023-12-29T02:17:06;2.20;;;1.97;;
1000;SDS011;489;47.806;12.858;2023-12-29T02:19:19;2.33;;;2.13;;
1000;SDS011;489;47.806;12.858;2023-12-29T02:21:35;2.83;;;2.30;;
1000;SDS011;489;47.806;12.858;2023-12-29T02:23:37;3.43;;;2.00;;
1000;SDS011;489;47.806;12.858;2023-12-29T02:25:40;2.60;;;2.00;;
1000;SDS011;489;47.806;12.858;2023-12-29T02:27:44;2.50;;;2.10;;
1000;SDS011;489;47.806;12.858;2023-12-29T02:29:52;2.50;;;1.80;;
1000;SDS011;489;47.806;12.858;2023-12-29T02:32:02;2.37;;;1.93;;
1000;SDS011;489;47.806;12.858;2023-12-29T02:34:06;2.77;;;1.73;;
1000;SDS011;489;47.806;12.858;2023-12-29T02:36:09;3.67;;;1.80;;
1000;SDS011;489;47.806;12.858;2023-12-29T02:38:13;3.40;;;2.40;;
1000;SDS011;489;47.806;12.858;2023-12-29T02:40:15;2.73;;;2.20;;
1000;SDS011;489;47.806;12.858;2023-12-29T02:42:18;2.23;;;2.00;;
1000;SDS011;489;47.806;12.858;2023-12-29T02:44:20;2.70;;;2.20;;
1000;SDS011;489;47.806;12.858;2023-12-29T02:46:21;2.20;;;2.00;;
1000;SDS011;489;47.806;12.858;2023-12-29T02:48:25;1.80;;;1.70;;
1000;SDS011;489;47.806;12.858;2023-12-29T02:50:27;2.30;;;1.93;;
1000;SDS011;489;47.806;12.858;2023-12-29T02:52:29;4.50;;;2.10;;
1000;SDS011;489;47.806;12.858;2023-12-29T02:54:31;3.60;;;2.70;;
1000;SDS011;489;47.806;12.858;2023-12-29T02:56:36;2.80;;;2.50;;
1000;SDS011;489;47.806;12.858;2023-12-29T02:58:39;2.63;;;2.30;;
1000;SDS011;489;47.806;12.858;2023-12-29T03:00:41;2.47;;;2.10;;
1000;SDS011;489;47.806;12.858;2023-12-29T03:02:43;2.73;;;2.17;;
1000;SDS011;489;47.806;12.858;2023-12-29T03:04:46;2.70;;;2.47;;
1000;SDS011;489;47.806;12.858;2023-12-29T03:06:46;2.57;;;2.13;;
1000;SDS011;489;47.806;12.858;2023-12-29T03:08:48;3.03;;;2.73;;
1000;SDS011;489;47.806;12.858;2023-12-29T03:10:50;2.77;;;2.47;;
1000;SDS011;489;47.806;12.858;2023-12-29T03:12:52;2.97;;;2.67;;
1000;SDS011;489;47.806;12.858;2023-12-29T03:14:55;2.77;;;2.40;;
1000;SDS011;489;47.806;12.858;2023-12-29T03:16:57;4.90;;;2.57;;
1000;SDS011;489;47.806;12.858;2023-12-29T03:18:59;2.43;;;2.23;;
1000;SDS011;489;47.806;12.858;2023-12-29T03:21:01;2.97;;;2.70;;
1000;SDS011;489;47.806;12.858;2023-12-29T03:23:03;4.90;;;2.70;;
1000;SDS011;489;47.806;12.858;2023-12-29T03:25:05;4.60;;;2.67;;
1000;SDS011;489;47.806;12.858;2023-12-29T03:27:07;2.47;;;2.10;;
1000;SDS011;489;47.806;12.858;2023-12-29T03:29:09;3.20;;;2.17;;
1000;SDS011;489;47.806;12.858;2023-12-29T03:31:13;2.37;;;2.17;;
1000;SDS011;489;47.806;12.858;2023-12-29T03:33:15;2.07;;;1.80;;
1000;SDS011;489;47.806;12.858;2023-12-29T03:35:17;2.90;;;2.00;;
1000;SDS011;489;47.806;12.858;2023-12-29T03:37:19;3.17;;;2.30;;
1000;SDS011;489;47.806;12.858;2023-12-29T03:39:21;2.50;;;1.97;;
1000;SDS011;489;47.806;12.858;2023-12-29T03:41:24;2.17;;;1.97;;
1000;SDS011;489;47.806;12.858;2023-12-29T03:43:24;4.40;;;3.17;;
1000;SDS011;489;47.806;12.858;2023-12-29T03:45:27;3.40;;;3.00;;
1000;SDS011;489;47.806;12.858;2023-12-29T03:47:30;2.77;;;2.53;;
1000;SDS011;489;47.806;12.858;2023-12-29T03:49:34;3.87;;;2.30;;
1000;SDS011;489;47.806;12.858;2023-12-29T03:51:36;3.50;;;2.87;;
1000;SDS011;489;47.806;12.858;2023-12-29T03:53:38;2.60;;;1.83;;
1000;SDS011;489;47.806;12.858;2023-12-29T03:55:40;2.83;;;2.53;;
1000;SDS011;489;47.806;12.858;2023-12-29T03:57:43;2.97;;;2.70;;
1000;SDS011;489;47.806;12.858;2023-12-29T03:59:45;2.77;;;2.47;;
1000;SDS011;489;47.806;12.858;2023-12-29T04:01:47;4.07;;;2.30;;
1000;SDS011;489;47.806;12.858;2023-12-29T04:03:50;2.57;;;2.30;;
1000;SDS011;489;47.806;12.858;2023-12-29T04:05:52;3.30;;;2.43;;
1000;SDS011;489;47.806;12.858;2023-12-29T04:07:54;3.30;;;2.47;;
1000;SDS011;489;47.806;12.858;2023-12-29T04:09:56;3.27;;;2.80;;
1000;SDS011;489;47.806;12.858;2023-12-29T04:11:58;2.60;;;2.40;;
1000;SDS011;489;47.806;12.858;2023-12-29T04:14:00;3.23;;;2.67;;
1000;SDS011;489;47.806;12.858;2023-12-29T04:16:03;4.20;;;3.20;;
1000;SDS011;489;47.806;12.858;2023-12-29T04:18:05;3.40;;;2.83;;
1000;SDS011;489;47.806;12.858;2023-12-29T04:20:09;3.13;;;2.83;;
1000;SDS011;489;47.806;12.858;2023-12-29T04:22:10;5.03;;;2.43;;
1000;SDS011;489;47.806;12.858;2023-12-29T04:24:12;2.57;;;2.00;;
1000;SDS011;489;47.806;12.858;2023-12-29T04:26:15;2.10;;;1.73;;
1000;SDS011;489;47.806;12.858;2023-12-29T04:28:18;2.50;;;1.97;;
1000;SDS011;489;47.806;12.858;2023-12-29T04:30:21;2.40;;;2.17;;
1000;SDS011;489;47.806;12.858;2023-12-29T04:32:23;2.83;;;2.47;;
1000;SDS011;489;47.806;12.858;2023-12-29T04:34:24;4.37;;;3.97;;
1000;SDS011;489;47.806;12.858;2023-12-29T04:36:27;3.60;;;3.20;;
1000;SDS011;489;47.806;12.858;2023-12-29T04:38:29;2.10;;;1.90;;
1000;SDS011;489;47.806;12.858;2023-12-29T04:40:31;2.80;;;2.40;;
1000;SDS011;489;47.806;12.858;2023-12-29T04:42:34;3.53;;;3.23;;
1000;SDS011;489;47.806;12.858;2023-12-29T04:44:35;3.40;;;2.60;;
1000;SDS011;489;47.806;12.858;2023-12-29T04:46:37;3.50;;;2.70;;
1000;SDS011;489;47.806;12.858;2023-12-29T04:48:39;5.67;;;2.73;;
1000;SDS011;489;47.806;12.858;2023-12-29T04:50:41;3.73;;;2.90;;
1000;SDS011;489;47.806;12.858;2023-12-29T04:52:45;3.40;;;2.87;;
1000;SDS011;489;47.806;12.858;2023-12-29T04:54:47;2.90;;;2.10;;
1000;SDS011;489;47.806;12.858;2023-12-29T04:56:51;4.30;;;3.30;;
1000;SDS011;489;47.806;12.858;2023-12-29T04:58:53;3.20;;;2.60;;
1000;SDS011;489;47.806;12.858;2023-12-29T05:00:55;3.33;;;2.50;;
1000;SDS011;489;47.806;12.858;2023-12-29T05:02:56;2.87;;;2.50;;
1000;SDS011;489;47.806;12.858;2023-12-29T05:04:58;2.50;;;2.30;;
1000;SDS011;489;47.806;12.858;2023-12-29T05:06:59;3.83;;;2.77;;
1000;SDS011;489;47.806;12.858;2023-12-29T05:09:02;4.00;;;2.90;;
1000;SDS011;489;47.806;12.858;2023-12-29T05:11:03;3.87;;;2.73;;
1000;SDS011;489;47.806;12.858;2023-12-29T05:13:05;3.80;;;3.13;;
1000;SDS011;489;47.806;12.858;2023-12-29T05:15:07;3.13;;;2.47;;
1000;SDS011;489;47.806;12.858;2023-12-29T05:17:08;3.90;;;3.00;;
1000;SDS011;489;47.806;12.858;2023-12-29T05:19:10;3.67;;;2.63;;
1000;SDS011;489;47.806;12.858;2023-12-29T05:21:16;2.80;;;2.20;;
1000;SDS011;489;47.806;12.858;2023-12-29T05:23:18;2.27;;;2.07;;
1000;SDS011;489;47.806;12.858;2023-12-29T05:25:21;2.73;;;2.37;;
1000;SDS011;489;47.806;12.858;2023-12-29T05:27:24;3.00;;;2.30;;
1000;SDS011;489;47.806;12.858;2023-12-29T05:29:26;3.03;;;2.73;;
1000;SDS011;489;47.806;12.858;2023-12-29T05:31:28;3.30;;;3.00;;
1000;SDS011;489;47.806;12.858;2023-12-29T05:33:30;3.00;;;2.70;;
1000;SDS011;489;47.806;12.858;2023-12-29T05:35:31;4.70;;;2.33;;
1000;SDS011;489;47.806;12.858;2023-12-29T05:37:33;2.83;;;2.53;;
1000;SDS011;489;47.806;12.858;2023-12-29T05:39:35;3.83;;;2.83;;
1000;SDS011;489;47.806;12.858;2023-12-29T05:41:39;3.30;;;3.00;;
1000;SDS011;489;47.806;12.858;2023-12-29T05:43:42;3.20;;;2.90;;
1000;SDS011;489;47.806;12.858;2023-12-29T05:45:44;5.20;;;3.00;;
1000;SDS011;489;47.806;12.858;2023-12-29T05:47:45;3.70;;;3.00;;
1000;SDS011;489;47.806;12.858;2023-12-29T05:49:47;3.80;;;3.10;;
1000;SDS011;489;47.806;12.858;2023-12-29T05:51:49;4.13;;;3.40;;
1000;SDS011;489;47.806;12.858;2023-12-29T05:53:51;3.47;;;3.17;;
1000;SDS011;489;47.806;12.858;2023-12-29T05:55:52;3.80;;;3.30;;
1000;SDS011;489;47.806;12.858;2023-12-29T05:57:56;6.93;;;4.10;;
1000;SDS011;489;47.806;12.858;2023-12-29T05:59:58;2.50;;;2.23;;
1000;SDS011;489;47.806;12.858;2023-12-29T06:02:00;3.63;;;2.77;;
1000;SDS011;489;47.806;12.858;2023-12-29T06:04:03;2.80;;;2.47;;
1000;SDS011;489;47.806;12.858;2023-12-29T06:06:04;3.30;;;2.83;;
1000;SDS011;489;47.806;12.858;2023-12-29T06:08:06;3.10;;;2.90;;
1000;SDS011;489;47.806;12.858;2023-12-29T06:10:08;3.80;;;2.97;;
1000;SDS011;489;47.806;12.858;2023-12-29T06:12:10;3.13;;;2.83;;
1000;SDS011;489;47.806;12.858;2023-12-29T06:14:13;3.00;;;2.63;;
1000;SDS011;489;47.806;12.858;2023-12-29T06:16:34;2.80;;;2.60;;
1000;SDS011;489;47.806;12.858;2023-12-29T06:18:36;2.53;;;2.33;;
1000;SDS011;489;47.806;12.858;2023-12-29T06:20:37;3.27;;;2.53;;
1000;SDS011;489;47.806;12.858;2023-12-29T06:22:39;2.60;;;2.40;;
1000;SDS011;489;47.806;12.858;2023-12-29T06:24:40;3.03;;;2.73;;
1000;SDS011;489;47.806;12.858;2023-12-29T06:26:42;2.67;;;2.33;;
1000;SDS011;489;47.806;12.858;2023-12-29T06:28:45;3.10;;;2.63;;
1000;SDS011;489;47.806;12.858;2023-12-29T06:30:49;2.93;;;2.63;;
1000;SDS011;489;47.806;12.858;2023-12-29T06:32:51;6.43;;;2.57;;
1000;SDS011;489;47.806;12.858;2023-12-29T06:34:53;4.77;;;2.93;;
1000;SDS011;489;47.806;12.858;2023-12-29T06:36:54;2.80;;;2.57;;
1000;SDS011;489;47.806;12.858;2023-12-29T06:38:56;2.80;;;2.50;;
1000;SDS011;489;47.806;12.858;2023-12-29T06:40:59;2.50;;;2.30;;
1000;SDS011;489;47.806;12.858;2023-12-29T06:43:01;4.50;;;2.83;;
1000;SDS011;489;47.806;12.858;2023-12-29T06:45:04;14.63;;;10.00;;
1000;SDS011;489;47.806;12.858;2023-12-29T06:47:09;5.20;;;3.30;;
1000;SDS011;489;47.806;12.858;2023-12-29T06:49:12;2.70;;;2.47;;
1000;SDS011;489;47.806;12.858;2023-12-29T06:51:17;3.10;;;2.80;;
1000;SDS011;489;47.806;12.858;2023-12-29T06:53:19;3.80;;;3.33;;
1000;SDS011;489;47.806;12.858;2023-12-29T06:55:21;6.97;;;4.80;;
1000;SDS011;489;47.806;12.858;2023-12-29T06:57:23;5.53;;;4.93;;
1000;SDS011;489;47.806;12.858;2023-12-29T06:59:25;4.83;;;4.30;;
1000;SDS011;489;47.806;12.858;2023-12-29T07:01:27;4.97;;;4.33;;
1000;SDS011;489;47.806;12.858;2023-12-29T07:03:30;3.93;;;3.53;;
1000;SDS011;489;47.806;12.858;2023-12-29T07:05:31;3.70;;;3.30;;
1000;SDS011;489;47.806;12.858;2023-12-29T07:07:34;4.20;;;2.80;;
1000;SDS011;489;47.806;12.858;2023-12-29T07:09:55;4.77;;;3.73;;
1000;SDS011;489;47.806;12.858;2023-12-29T07:11:57;5.23;;;3.77;;
1000;SDS011;489;47.806;12.858;2023-12-29T07:14:00;3.53;;;3.20;;
1000;SDS011;489;47.806;12.858;2023-12-29T07:16:02;4.20;;;3.80;;
1000;SDS011;489;47.806;12.858;2023-12-29T07:18:03;3.73;;;3.27;;
1000;SDS011;489;47.806;12.858;2023-12-29T07:20:07;6.10;;;4.20;;
1000;SDS011;489;47.806;12.858;2023-12-29T07:22:10;5.10;;;4.20;;
1000;SDS011;489;47.806;12.858;2023-12-29T07:24:12;7.13;;;4.80;;
1000;SDS011;489;47.806;12.858;2023-12-29T07:26:14;18.53;;;11.57;;
1000;SDS011;489;47.806;12.858;2023-12-29T07:28:15;13.67;;;7.87;;
1000;SDS011;489;47.806;12.858;2023-12-29T07:30:18;6.10;;;4.60;;
1000;SDS011;489;47.806;12.858;2023-12-29T07:32:19;6.77;;;5.90;;
1000;SDS011;489;47.806;12.858;2023-12-29T07:34:21;7.20;;;6.10;;
1000;SDS011;489;47.806;12.858;2023-12-29T07:36:25;5.53;;;4.30;;
1000;SDS011;489;47.806;12.858;2023-12-29T07:38:27;8.17;;;5.30;;
1000;SDS011;489;47.806;12.858;2023-12-29T07:40:29;6.33;;;5.00;;
1000;SDS011;489;47.806;12.858;2023-12-29T07:42:31;4.50;;;3.60;;
1000;SDS011;489;47.806;12.858;2023-12-29T07:44:33;4.00;;;3.50;;
1000;SDS011;489;47.806;12.858;2023-12-29T07:46:35;3.70;;;2.93;;
1000;SDS011;489;47.806;12.858;2023-12-29T07:48:37;3.30;;;3.00;;
1000;SDS011;489;47.806;12.858;2023-12-29T07:50:39;3.67;;;2.80;;
1000;SDS011;489;47.806;12.858;2023-12-29T07:52:43;2.77;;;2.40;;
1000;SDS011;489;47.806;12.858;2023-12-29T07:54:45;3.97;;;2.40;;
1000;SDS011;489;47.806;12.858;2023-12-29T07:56:48;2.33;;;1.90;;
1000;SDS011;489;47.806;12.858;2023-12-29T07:58:51;2.77;;;2.33;;
1000;SDS011;489;47.806;12.858;2023-12-29T08:00:53;7.30;;;4.80;;
1000;SDS011;489;47.806;12.858;2023-12-29T08:02:55;11.37;;;6.97;;
1000;SDS011;489;47.806;12.858;2023-12-29T08:04:56;6.77;;;4.40;;
1000;SDS011;489;47.806;12.858;2023-12-29T08:06:58;3.20;;;2.60;;
1000;SDS011;489;47.806;12.858;2023-12-29T08:09:02;6.77;;;3.30;;
1000;SDS011;489;47.806;12.858;2023-12-29T08:11:04;2.90;;;2.43;;
1000;SDS011;489;47.806;12.858;2023-12-29T08:13:06;2.50;;;2.27;;
1000;SDS011;489;47.806;12.858;2023-12-29T08:15:09;3.07;;;2.77;;
1000;SDS011;489;47.806;12.858;2023-12-29T08:17:12;4.40;;;3.50;;
1000;SDS011;489;47.806;12.858;2023-12-29T08:19:14;4.67;;;3.70;;
1000;SDS011;489;47.806;12.858;2023-12-29T08:21:17;4.20;;;3.67;;
1000;SDS011;489;47.806;12.858;2023-12-29T08:23:19;3.87;;;3.43;;
1000;SDS011;489;47.806;12.858;2023-12-29T08:25:22;5.03;;;3.63;;
1000;SDS011;489;47.806;12.858;2023-12-29T08:27:25;4.97;;;4.47;;
1000;SDS011;489;47.806;12.858;2023-12-29T08:29:27;4.70;;;4.30;;
1000;SDS011;489;47.806;12.858;2023-12-29T08:31:29;5.30;;;4.80;;
1000;SDS011;489;47.806;12.858;2023-12-29T08:33:31;5.20;;;4.60;;
1000;SDS011;489;47.806;12.858;2023-12-29T08:35:33;6.33;;;4.93;;
1000;SDS011;489;47.806;12.858;2023-12-29T08:37:35;5.53;;;4.90;;
1000;SDS011;489;47.806;12.858;2023-12-29T08:39:37;5.10;;;4.20;;
1000;SDS011;489;47.806;12.858;2023-12-29T08:41:40;4.40;;;4.00;;
1000;SDS011;489;47.806;12.858;2023-12-29T08:43:42;6.00;;;4.30;;
1000;SDS011;489;47.806;12.858;2023-12-29T08:45:44;5.53;;;4.30;;
1000;SDS011;489;47.806;12.858;2023-12-29T08:47:46;4.43;;;4.00;;
1000;SDS011;489;47.806;12.858;2023-12-29T08:49:48;4.70;;;3.63;;
1000;SDS011;489;47.806;12.858;2023-12-29T08:51:50;4.50;;;4.00;;
1000;SDS011;489;47.806;12.858;2023-12-29T08:53:52;4.17;;;3.60;;
1000;SDS011;489;47.806;12.858;2023-12-29T08:55:54;4.17;;;3.77;;
1000;SDS011;489;47.806;12.858;2023-12-29T08:57:57;4.50;;;3.80;;
1000;SDS011;489;47.806;12.858;2023-12-29T08:59:59;6.60;;;4.30;;
1000;SDS011;489;47.806;12.858;2023-12-29T09:02:01;4.50;;;4.03;;
1000;SDS011;489;47.806;12.858;2023-12-29T09:04:02;6.23;;;4.13;;
1000;SDS011;489;47.806;12.858;2023-12-29T09:06:04;7.40;;;5.67;;
1000;SDS011;489;47.806;12.858;2023-12-29T09:08:06;7.23;;;6.30;;
1000;SDS011;489;47.806;12.858;2023-12-29T09:10:08;5.60;;;4.30;;
1000;SDS011;489;47.806;12.858;2023-12-29T09:12:11;5.37;;;3.87;;
1000;SDS011;489;47.806;12.858;2023-12-29T09:14:14;4.80;;;4.20;;
1000;SDS011;489;47.806;12.858;2023-12-29T09:16:16;4.47;;;4.07;;
1000;SDS011;489;47.806;12.858;2023-12-29T09:18:18;5.60;;;4.40;;
1000;SDS011;489;47.806;12.858;2023-12-29T09:20:20;4.40;;;3.57;;
1000;SDS011;489;47.806;12.858;2023-12-29T09:22:22;4.07;;;3.67;;
1000;SDS011;489;47.806;12.858;2023-12-29T09:24:23;6.93;;;5.77;;
1000;SDS011;489;47.806;12.858;2023-12-29T09:26:25;6.20;;;4.50;;
1000;SDS011;489;47.806;12.858;2023-12-29T09:28:27;5.07;;;4.50;;
1000;SDS011;489;47.806;12.858;2023-12-29T09:30:30;6.80;;;4.60;;
1000;SDS011;489;47.806;12.858;2023-12-29T09:32:32;6.53;;;5.10;;
1000;SDS011;489;47.806;12.858;2023-12-29T09:34:34;5.80;;;4.67;;
1000;SDS011;489;47.806;12.858;2023-12-29T09:36:36;9.80;;;7.00;;
1000;SDS011;489;47.806;12.858;2023-12-29T09:38:39;9.40;;;7.17;;
1000;SDS011;489;47.806;12.858;2023-12-29T09:40:42;9.40;;;6.40;;
1000;SDS011;489;47.806;12.858;2023-12-29T09:42:44;8.50;;;5.60;;
1000;SDS011;489;47.806;12.858;2023-12-29T09:44:46;5.80;;;4.87;;
1000;SDS011;489;47.806;12.858;2023-12-29T09:46:53;4.50;;;4.10;;
1000;SDS011;489;47.806;12.858;2023-12-29T09:48:55;4.27;;;3.73;;
1000;SDS011;489;47.806;12.858;2023-12-29T09:50:57;3.73;;;3.30;;
1000;SDS011;489;47.806;12.858;2023-12-29T09:52:59;4.17;;;3.57;;
1000;SDS011;489;47.806;12.858;2023-12-29T09:55:19;3.50;;;3.20;;
1000;SDS011;489;47.806;12.858;2023-12-29T09:57:22;4.77;;;3.40;;
1000;SDS011;489;47.806;12.858;2023-12-29T09:59:25;3.13;;;2.63;;
1000;SDS011;489;47.806;12.858;2023-12-29T10:01:28;4.13;;;3.30;;
1000;SDS011;489;47.806;12.858;2023-12-29T10:03:32;3.97;;;3.37;;
1000;SDS011;489;47.806;12.858;2023-12-29T10:05:34;3.77;;;3.37;;
1000;SDS011;489;47.806;12.858;2023-12-29T10:07:36;2.80;;;2.50;;
1000;SDS011;489;47.806;12.858;2023-12-29T10:09:41;5.30;;;3.17;;
1000;SDS011;489;47.806;12.858;2023-12-29T10:11:43;3.27;;;2.77;;
1000;SDS011;489;47.806;12.858;2023-12-29T10:13:49;2.90;;;2.10;;
1000;SDS011;489;47.806;12.858;2023-12-29T10:15:53;3.03;;;2.50;;
1000;SDS011;489;47.806;12.858;2023-12-29T10:18:00;2.93;;;2.00;;
1000;SDS011;489;47.806;12.858;2023-12-29T10:20:12;2.20;;;2.00;;
1000;SDS011;489;47.806;12.858;2023-12-29T10:22:18;1.93;;;1.80;;
1000;SDS011;489;47.806;12.858;2023-12-29T10:24:23;1.93;;;1.70;;
1000;SDS011;489;47.806;12.858;2023-12-29T10:26:25;1.90;;;1.70;;
1000;SDS011;489;47.806;12.858;2023-12-29T10:28:28;4.90;;;2.37;;
1000;SDS011;489;47.806;12.858;2023-12-29T10:30:30;2.23;;;2.03;;
1000;SDS011;489;47.806;12.858;2023-12-29T10:32:32;3.23;;;2.20;;
1000;SDS011;489;47.806;12.858;2023-12-29T10:34:34;2.03;;;1.83;;
1000;SDS011;489;47.806;12.858;2023-12-29T10:36:43;2.30;;;2.07;;
1000;SDS011;489;47.806;12.858;2023-12-29T10:38:47;2.37;;;2.10;;
1000;SDS011;489;47.806;12.858;2023-12-29T10:40:50;2.10;;;1.90;;
1000;SDS011;489;47.806;12.858;2023-12-29T10:42:52;2.90;;;2.20;;
1000;SDS011;489;47.806;12.858;2023-12-29T10:45:04;2.57;;;2.00;;
1000;SDS011;489;47.806;12.858;2023-12-29T10:47:07;2.03;;;1.83;;
1000;SDS011;489;47.806;12.858;2023-12-29T10:49:10;2.10;;;1.77;;
1000;SDS011;489;47.806;12.858;2023-12-29T10:51:14;2.77;;;2.23;;
1000;SDS011;489;47.806;12.858;2023-12-29T10:53:17;2.93;;;2.30;;
1000;SDS011;489;47.806;12.858;2023-12-29T10:55:20;2.10;;;1.90;;
1000;SDS011;489;47.806;12.858;2023-12-29T10:57:25;1.97;;;1.77;;
1000;SDS011;489;47.806;12.858;2023-12-29T10:59:27;2.03;;;1.83;;
1000;SDS011;489;47.806;12.858;2023-12-29T11:01:29;2.93;;;2.00;;
1000;SDS011;489;47.806;12.858;2023-12-29T11:03:31;2.27;;;2.07;;
1000;SDS011;489;47.806;12.858;2023-12-29T11:05:58;2.90;;;2.20;;
1000;SDS011;489;47.806;12.858;2023-12-29T11:08:01;3.13;;;1.97;;
1000;SDS011;489;47.806;12.858;2023-12-29T11:10:05;2.13;;;1.93;;
1000;SDS011;489;47.806;12.858;2023-12-29T11:12:08;2.10;;;1.90;;
1000;SDS011;489;47.806;12.858;2023-12-29T11:14:12;2.00;;;1.80;;
1000;SDS011;489;47.806;12.858;2023-12-29T11:16:15;2.93;;;2.30;;
1000;SDS011;489;47.806;12.858;2023-12-29T11:18:21;2.53;;;2.00;;
1000;SDS011;489;47.806;12.858;2023-12-29T11:20:23;2.97;;;1.97;;
1000;SDS011;489;47.806;12.858;2023-12-29T11:22:27;2.43;;;1.90;;
1000;SDS011;489;47.806;12.858;2023-12-29T11:24:30;2.17;;;1.97;;
1000;SDS011;489;47.806;12.858;2023-12-29T11:26:33;2.60;;;1.87;;
1000;SDS011;489;47.806;12.858;2023-12-29T11:28:36;2.47;;;1.60;;
1000;SDS011;489;47.806;12.858;2023-12-29T11:30:38;2.20;;;2.00;;
1000;SDS011;489;47.806;12.858;2023-12-29T11:32:41;1.90;;;1.60;;
1000;SDS011;489;47.806;12.858;2023-12-29T11:34:48;2.23;;;2.03;;
1000;SDS011;489;47.806;12.858;2023-12-29T11:36:55;5.43;;;2.23;;
1000;SDS011;489;47.806;12.858;2023-12-29T11:38:59;2.10;;;1.90;;
1000;SDS011;489;47.806;12.858;2023-12-29T11:41:05;2.10;;;1.83;;
1000;SDS011;489;47.806;12.858;2023-12-29T11:43:14;2.27;;;1.80;;
1000;SDS011;489;47.806;12.858;2023-12-29T11:45:24;2.27;;;1.70;;
1000;SDS011;489;47.806;12.858;2023-12-29T11:47:36;2.20;;;1.70;;
1000;SDS011;489;47.806;12.858;2023-12-29T11:52:04;2.17;;;1.77;;
1000;SDS011;489;47.806;12.858;2023-12-29T11:54:06;2.93;;;1.90;;
1000;SDS011;489;47.806;12.858;2023-12-29T11:56:14;1.87;;;1.70;;
1000;SDS011;489;47.806;12.858;2023-12-29T11:58:26;1.97;;;1.70;;
1000;SDS011;489;47.806;12.858;2023-12-29T12:00:41;2.27;;;1.73;;
1000;SDS011;489;47.806;12.858;2023-12-29T12:02:45;1.53;;;1.40;;
1000;SDS011;489;47.806;12.858;2023-12-29T12:04:48;2.67;;;1.50;;
1000;SDS011;489;47.806;12.858;2023-12-29T12:06:51;1.40;;;1.20;;
1000;SDS011;489;47.806;12.858;2023-12-29T12:08:53;1.40;;;1.30;;
1000;SDS011;489;47.806;12.858;2023-12-29T12:13:45;1.53;;;1.10;;
1000;SDS011;489;47.806;12.858;2023-12-29T12:15:48;1.10;;;1.00;;
1000;SDS011;489;47.806;12.858;2023-12-29T12:17:49;0.60;;;0.60;;
1000;SDS011;489;47.806;12.858;2023-12-29T12:19:52;0.63;;;0.57;;
1000;SDS011;489;47.806;12.858;2023-12-29T12:22:16;1.10;;;0.90;;
1000;SDS011;489;47.806;12.858;2023-12-29T12:24:20;0.80;;;0.70;;
1000;SDS011;489;47.806;12.858;2023-12-29T12:26:22;0.70;;;0.53;;
1000;SDS011;489;47.806;12.858;2023-12-29T12:28:27;0.70;;;0.50;;
1000;SDS011;489;47.806;12.858;2023-12-29T12:30:31;0.80;;;0.60;;
1000;SDS011;489;47.806;12.858;2023-12-29T12:32:36;1.00;;;0.60;;
1000;SDS011;489;47.806;12.858;2023-12-29T12:34:38;0.83;;;0.77;;
1000;SDS011;489;47.806;12.858;2023-12-29T12:36:47;1.10;;;0.80;;
1000;SDS011;489;47.806;12.858;2023-12-29T12:38:52;2.20;;;1.23;;
1000;SDS011;489;47.806;12.858;2023-12-29T12:40:55;1.83;;;1.40;;
1000;SDS011;489;47.806;12.858;2023-12-29T12:42:57;1.10;;;0.80;;
1000;SDS011;489;47.806;12.858;2023-12-29T12:45:03;5.70;;;3.57;;
1000;SDS011;489;47.806;12.858;2023-12-29T12:47:09;2.27;;;1.40;;
1000;SDS011;489;47.806;12.858;2023-12-29T12:49:12;1.30;;;1.17;;